Bei Facebook empfehlenBei Twitter postenGoogle plusPinterest

Das Wetter im Erzgebirge am 09.11.2016

Wetter und Klima am 09.11.2016 Holzhau im Erzgebirge (630m ü.NN)
Letzte gemessene Temperatur und Uhrzeit der Messung23:45:00 Uhr-1.60 °C
Temperatur (Maximum / Höchstwert) und Uhrzeit der Messung12:00:00 Uhr3.60 °C
Temperatur (Minimum / Tiefstwert) und Uhrzeit der Messung08:00:00-5.50 °C
Errechneter Absolutwert der Temperaturschwankungen zwischen Tmin und Tmax des Tages9.10 K
Errechnete Tagesmitteltemperatur-1.27396 °C
Gesamt - Niederschlag des Tages (in flüssiger Form)1.56 Liter / m²
Luftdruck (Maximum / Höchstwert) und Zeitpunkt der Messung02:00:00 Uhr1005.10 hPa
Luftdruck (Minimum / Tiefstwert) und Zeitpunkt der Messung23:30:00 Uhr1000.80 hPa
Errechneter Absolutwert der Luftdruckschwankungen des Tages4.30 hPa
Höchste gemessene Windgeschwindigkeit und Uhrzeit der Messung23:45:00 Uhr0.00 km/h
Errechnete Windhäufigkeit in Relation zu den Messwerten des Tages0.00000 %
Niedrigste Windkühle (Windchill) und Zeitpunkt der Messung08:00:00 Uhr-5.50 °C
Taupunkt (Maximum / Höchstwert) und Uhrzeit der Messung11:30:00 Uhr2.10 °C
Taupunkt (Minimum / Tiefstwert) und Uhrzeit der Messung08:00:00-6.60 °C
Anzahl der automatisch eingelesenen Messwerte 96

Detaillierte Wetter- und Klima- Messwerte für den 09.11.2016 in Holzhau im Erzgebirge (630m ü.NN)
ZeitTemperaturLuftdruckRel. LuftfeuchteWindWindrichtungWindchillTaupunktNiederschlag l/m²
23:45:00-1.60 °C1001.00 hPa91.00 %-3.00 °C1.56
23:30:00-1.70 °C1000.80 hPa91.00 %-3.10 °C1.56
23:15:00-1.70 °C1001.00 hPa91.00 %-3.10 °C1.56
23:00:00-1.80 °C1001.00 hPa91.00 %-3.20 °C1.56
22:45:00-1.90 °C1000.90 hPa92.00 %-3.20 °C1.56
22:30:00-2.10 °C1000.90 hPa92.00 %-3.40 °C1.56
22:15:00-2.30 °C1000.80 hPa91.00 %-3.70 °C1.56
22:00:00-2.40 °C1000.90 hPa91.00 %-3.80 °C1.56
21:45:00-2.50 °C1001.10 hPa91.00 %-3.90 °C1.56
21:30:00-2.50 °C1001.10 hPa91.00 %-3.90 °C1.56
21:15:00-2.40 °C1001.20 hPa91.00 %-3.80 °C1.56
21:00:00-2.40 °C1001.40 hPa91.00 %-3.80 °C1.56
20:45:00-2.40 °C1001.50 hPa91.00 %-3.80 °C1.56
20:30:00-2.50 °C1001.50 hPa90.00 %-4.10 °C1.56
20:15:00-2.50 °C1001.40 hPa90.00 %-4.10 °C1.56
20:00:00-2.40 °C1001.50 hPa90.00 %-4.00 °C1.56
19:45:00-2.50 °C1001.40 hPa90.00 %-4.10 °C1.56
19:30:00-2.60 °C1001.60 hPa90.00 %-4.20 °C1.56
19:15:00-2.70 °C1001.70 hPa90.00 %-4.30 °C1.56
19:00:00-2.70 °C1001.50 hPa89.00 %-4.40 °C1.56
18:45:00-2.90 °C1001.70 hPa89.00 %-4.60 °C1.56
18:30:00-2.80 °C1001.70 hPa88.00 %-4.70 °C1.56
18:15:00-2.80 °C1001.70 hPa88.00 %-4.70 °C1.56
18:00:00-2.90 °C1001.90 hPa88.00 %-4.80 °C1.56
17:45:00-2.90 °C1002.00 hPa87.00 %-5.00 °C1.56
17:30:00-2.70 °C1001.90 hPa86.00 %-5.00 °C1.56
17:15:00-2.50 °C1001.80 hPa86.00 %-4.80 °C1.56
17:00:00-2.40 °C1001.80 hPa85.00 %-4.80 °C1.56
16:45:00-2.10 °C1001.70 hPa85.00 %-4.50 °C1.56
16:30:00-1.80 °C1001.70 hPa84.00 %-4.40 °C1.56
16:15:00-1.20 °C1001.90 hPa83.00 %-4.00 °C1.56
16:00:00-0.60 °C1002.10 hPa82.00 %-3.60 °C1.56
15:45:000.10 °C1002.10 hPa81.00 %-2.80 °C1.56
15:30:000.90 °C1002.30 hPa81.00 %-2.00 °C1.56
15:15:001.40 °C1002.50 hPa80.00 %-1.70 °C1.56
15:00:001.80 °C1002.50 hPa80.00 %-1.30 °C1.56
14:45:002.10 °C1002.70 hPa81.00 %-0.80 °C1.56
14:30:002.30 °C1002.50 hPa81.00 %-0.60 °C1.04
14:15:001.90 °C1002.70 hPa82.00 %-0.80 °C1.04
14:00:001.50 °C1002.90 hPa81.00 %-1.40 °C1.04
13:45:001.90 °C1002.90 hPa81.00 %-1.00 °C1.04
13:30:002.30 °C1003.30 hPa80.00 %-0.80 °C1.04
13:15:003.00 °C1003.20 hPa81.00 %0.10 °C1.04
13:00:003.40 °C1003.30 hPa82.00 %0.60 °C1.04
12:45:003.50 °C1003.40 hPa83.00 %0.90 °C1.04
12:30:002.90 °C1003.30 hPa84.00 %0.50 °C1.04
12:15:002.90 °C1003.50 hPa84.00 %0.50 °C1.04
12:00:003.60 °C1003.40 hPa86.00 %1.50 °C1.04
11:45:003.60 °C1003.30 hPa89.00 %2.00 °C1.04
11:30:003.40 °C1003.20 hPa91.00 %2.10 °C0.52
11:15:003.10 °C1003.50 hPa92.00 %1.90 °C0.52
11:00:003.00 °C1003.40 hPa93.00 %2.00 °C0.52
10:45:002.40 °C1003.50 hPa94.00 %1.50 °C 
10:30:001.70 °C1003.60 hPa94.00 %0.80 °C 
10:15:000.90 °C1003.80 hPa95.00 %0.20 °C 
10:00:000.10 °C1003.60 hPa94.00 %-0.70 °C 
09:45:00-0.40 °C1003.60 hPa95.00 %-1.20 °C 
09:30:00-1.10 °C1003.60 hPa95.00 %-1.90 °C 
09:15:00-2.40 °C1003.90 hPa94.00 %-3.30 °C 
09:00:00-3.70 °C1003.60 hPa94.00 %-4.60 °C 
08:45:00-4.60 °C1003.40 hPa94.00 %-5.50 °C 
08:30:00-5.10 °C1003.40 hPa93.00 %-6.20 °C 
08:15:00-5.40 °C1003.30 hPa93.00 %-6.50 °C 
08:00:00-5.50 °C1003.40 hPa93.00 %-6.60 °C 
07:45:00-5.30 °C1003.60 hPa93.00 %-6.40 °C 
07:30:00-4.90 °C1003.60 hPa93.00 %-6.00 °C 
07:15:00-4.60 °C1003.80 hPa93.00 %-5.70 °C 
07:00:00-4.20 °C1003.90 hPa93.00 %-5.30 °C 
06:45:00-3.90 °C1003.80 hPa93.00 %-5.00 °C 
06:30:00-3.20 °C1003.60 hPa93.00 %-4.30 °C 
06:15:00-2.90 °C1003.70 hPa94.00 %-3.80 °C 
06:00:00-3.00 °C1003.70 hPa93.00 %-4.10 °C 
05:45:00-3.10 °C1003.80 hPa93.00 %-4.20 °C 
05:30:00-2.80 °C1003.70 hPa93.00 %-3.90 °C 
05:15:00-2.40 °C1004.00 hPa94.00 %-3.30 °C 
05:00:00-1.80 °C1004.10 hPa94.00 %-2.70 °C 
04:45:00-1.70 °C1004.00 hPa94.00 %-2.60 °C 
04:30:00-1.70 °C1003.90 hPa94.00 %-2.60 °C 
04:15:00-1.70 °C1004.00 hPa94.00 %-2.60 °C 
04:00:00-1.70 °C1004.20 hPa94.00 %-2.60 °C 
03:45:00-1.70 °C1004.20 hPa94.00 %-2.60 °C 
03:30:00-1.70 °C1004.20 hPa94.00 %-2.60 °C 
03:15:00-1.80 °C1004.20 hPa94.00 %-2.70 °C 
03:00:00-1.80 °C1004.40 hPa94.00 %-2.70 °C 
02:45:00-1.80 °C1004.50 hPa94.00 %-2.70 °C 
02:30:00-1.80 °C1004.90 hPa94.00 %-2.70 °C 
02:15:00-1.80 °C1005.00 hPa93.00 %-2.90 °C 
02:00:00-1.60 °C1005.10 hPa94.00 %-2.50 °C 
01:45:00-1.60 °C1005.10 hPa93.00 %-2.70 °C 
01:30:00-1.50 °C1005.00 hPa93.00 %-2.60 °C 
01:15:00-1.40 °C1005.00 hPa93.00 %-2.50 °C 
01:00:00-1.40 °C1004.80 hPa93.00 %-2.50 °C 
00:45:00-1.50 °C1004.70 hPa93.00 %-2.60 °C 
00:30:00-1.50 °C1004.70 hPa93.00 %-2.60 °C 
00:15:00-1.50 °C1004.70 hPa93.00 %-2.60 °C 
00:00:00-1.30 °C1004.90 hPa93.00 %-2.40 °C 

Permanenter Link zu dieser Seite: Wetter im Erzgebirge am 09.11.2016
Performance-Info: Die Erstellung der Seite / Statistik(en) / Tabelle(n) erforderte 5 Datenbankserver-Abfrage(n) und dauerte 100 Millisekunden. (Dieser Messwert ist von der Gesamt-Auslastung des Servers abhängig.)
Erzgebirge - Wetter | Erzgebirge - Wetter (Mobilgeräte) | Komplette Klimadatenbank